Airfield :
LOGIN :

Register | Disclaimer

   EN    FR    IT 

 










Legend :    VFR   Marginal VFR   IFR   Intensive IFR   Very Intensive IFR
Visi :
Ceiling :
>= 8 km
>= 3000ft
5 to 8 km
1000 to 3000 ft
1500m to 5 km
500 to 1000 ft
800 to 1500m
200 to 500 ft
< 800m
< 200 ft
Symbols :   Thunderstorms  Fog  Heavy snow  Heavy precipitations  Wind > 20 kt
SIGMETs :     Misc.  Thunderstorms  Icing  Turbulence  Mountain Waves  Volcanic Ashes







- Airport Elevation : 280 ft
- IATA code : FAE


EKVG - Vagar

CURRENT METAR :
  • 202050Z AUTO 27022KT 9999NDV BKN011/// 05/04 Q1003

EXPIRED METARs :
  • 202020Z AUTO 27019KT 9999NDV BKN009/// 05/05 Q1003
  • 201950Z AUTO 28017KT 9999NDV BKN010/// 05/05 Q1002
  • 201920Z AUTO 29006KT 9999NDV BKN003/// BKN021/// 04/04 Q1001 RMK BKN013/// BKN014/// WIND SKEID 30013KT
  • 201850Z 29010KT 7000 FEW003 BKN008 04/04 Q1000
  • 201820Z 27005KT 190V300 8000 -DZ FEW003 BKN010 04/04 Q1000 RMK WIND SKEID 31003KT

Expired Forecast.
No reported NOTAMs for that airfield.



MET'MAP, your aeronautical weather chart ! - Copyright ORBIFLY December 2007 - Disclaimer

ORBIFLY MET'MAP TEAM :

Programming & Development : Alexandra Zaïnal
Concept & Development : Baudouin d'Aumeries
Co-Development & Prog : Marc-Olivier Méhu
Technical & hardware support : Manuel Goepfert

Contact : metmap@orbifly.com




SOURCES & CREDITS :

   NOAA